sensor_id;sensor_type;location;lat;lon;timestamp;P1;durP1;ratioP1;P2;durP2;ratioP2
6821;SDS011;3449;48.728;8.968;2023-11-19T00:02:26;6.37;;;3.57;;
6821;SDS011;3449;48.728;8.968;2023-11-19T00:04:53;3.53;;;2.80;;
6821;SDS011;3449;48.728;8.968;2023-11-19T00:07:19;3.90;;;2.80;;
6821;SDS011;3449;48.728;8.968;2023-11-19T00:09:46;4.77;;;2.47;;
6821;SDS011;3449;48.728;8.968;2023-11-19T00:12:12;3.80;;;1.93;;
6821;SDS011;3449;48.728;8.968;2023-11-19T00:14:39;2.47;;;1.80;;
6821;SDS011;3449;48.728;8.968;2023-11-19T00:17:06;3.23;;;2.30;;
6821;SDS011;3449;48.728;8.968;2023-11-19T00:19:34;1.77;;;1.67;;
6821;SDS011;3449;48.728;8.968;2023-11-19T00:22:01;2.90;;;2.07;;
6821;SDS011;3449;48.728;8.968;2023-11-19T00:24:28;1.70;;;1.50;;
6821;SDS011;3449;48.728;8.968;2023-11-19T00:26:55;1.77;;;1.67;;
6821;SDS011;3449;48.728;8.968;2023-11-19T00:29:22;2.37;;;1.50;;
6821;SDS011;3449;48.728;8.968;2023-11-19T00:31:50;2.00;;;1.90;;
6821;SDS011;3449;48.728;8.968;2023-11-19T00:34:17;1.80;;;1.37;;
6821;SDS011;3449;48.728;8.968;2023-11-19T00:36:49;2.53;;;2.20;;
6821;SDS011;3449;48.728;8.968;2023-11-19T00:39:15;1.57;;;1.47;;
6821;SDS011;3449;48.728;8.968;2023-11-19T00:41:45;2.00;;;1.50;;
6821;SDS011;3449;48.728;8.968;2023-11-19T00:44:12;4.30;;;1.70;;
6821;SDS011;3449;48.728;8.968;2023-11-19T00:46:39;1.73;;;1.63;;
6821;SDS011;3449;48.728;8.968;2023-11-19T00:49:06;1.73;;;1.43;;
6821;SDS011;3449;48.728;8.968;2023-11-19T00:51:33;8.73;;;1.47;;
6821;SDS011;3449;48.728;8.968;2023-11-19T00:54:01;1.77;;;1.63;;
6821;SDS011;3449;48.728;8.968;2023-11-19T00:56:28;1.63;;;1.50;;
6821;SDS011;3449;48.728;8.968;2023-11-19T00:58:55;1.20;;;1.10;;
6821;SDS011;3449;48.728;8.968;2023-11-19T01:01:22;1.30;;;1.20;;
6821;SDS011;3449;48.728;8.968;2023-11-19T01:03:49;1.33;;;1.20;;
6821;SDS011;3449;48.728;8.968;2023-11-19T01:06:26;2.00;;;1.27;;
6821;SDS011;3449;48.728;8.968;2023-11-19T01:08:53;4.07;;;1.77;;
6821;SDS011;3449;48.728;8.968;2023-11-19T01:11:23;6.93;;;1.80;;
6821;SDS011;3449;48.728;8.968;2023-11-19T01:13:50;1.73;;;1.17;;
6821;SDS011;3449;48.728;8.968;2023-11-19T01:16:17;1.63;;;1.53;;
6821;SDS011;3449;48.728;8.968;2023-11-19T01:18:46;1.37;;;1.27;;
6821;SDS011;3449;48.728;8.968;2023-11-19T01:21:13;3.07;;;1.50;;
6821;SDS011;3449;48.728;8.968;2023-11-19T01:23:40;1.07;;;0.97;;
6821;SDS011;3449;48.728;8.968;2023-11-19T01:26:08;2.30;;;1.10;;
6821;SDS011;3449;48.728;8.968;2023-11-19T01:28:38;1.20;;;1.10;;
6821;SDS011;3449;48.728;8.968;2023-11-19T01:31:09;1.40;;;1.30;;
6821;SDS011;3449;48.728;8.968;2023-11-19T01:33:37;0.80;;;0.80;;
6821;SDS011;3449;48.728;8.968;2023-11-19T01:36:05;1.53;;;1.40;;
6821;SDS011;3449;48.728;8.968;2023-11-19T01:38:33;1.67;;;1.27;;
6821;SDS011;3449;48.728;8.968;2023-11-19T01:41:00;1.43;;;1.30;;
6821;SDS011;3449;48.728;8.968;2023-11-19T01:43:32;0.63;;;0.63;;
6821;SDS011;3449;48.728;8.968;2023-11-19T01:46:00;0.73;;;0.63;;
6821;SDS011;3449;48.728;8.968;2023-11-19T01:48:27;1.10;;;1.00;;
6821;SDS011;3449;48.728;8.968;2023-11-19T01:50:54;0.70;;;0.70;;
6821;SDS011;3449;48.728;8.968;2023-11-19T01:53:22;0.87;;;0.87;;
6821;SDS011;3449;48.728;8.968;2023-11-19T01:55:50;1.63;;;0.87;;
6821;SDS011;3449;48.728;8.968;2023-11-19T01:58:17;2.10;;;1.20;;
6821;SDS011;3449;48.728;8.968;2023-11-19T02:00:45;1.43;;;1.10;;
6821;SDS011;3449;48.728;8.968;2023-11-19T02:03:14;0.60;;;0.60;;
6821;SDS011;3449;48.728;8.968;2023-11-19T02:05:41;0.40;;;0.40;;
6821;SDS011;3449;48.728;8.968;2023-11-19T02:08:08;0.50;;;0.50;;
6821;SDS011;3449;48.728;8.968;2023-11-19T02:10:35;0.87;;;0.50;;
6821;SDS011;3449;48.728;8.968;2023-11-19T02:13:02;0.50;;;0.30;;
6821;SDS011;3449;48.728;8.968;2023-11-19T02:15:31;0.60;;;0.60;;
6821;SDS011;3449;48.728;8.968;2023-11-19T02:20:52;0.43;;;0.43;;
6821;SDS011;3449;48.728;8.968;2023-11-19T02:23:20;0.70;;;0.60;;
6821;SDS011;3449;48.728;8.968;2023-11-19T02:25:50;0.70;;;0.60;;
6821;SDS011;3449;48.728;8.968;2023-11-19T02:28:27;1.20;;;0.60;;
6821;SDS011;3449;48.728;8.968;2023-11-19T02:30:54;0.60;;;0.60;;
6821;SDS011;3449;48.728;8.968;2023-11-19T02:33:21;0.40;;;0.40;;
6821;SDS011;3449;48.728;8.968;2023-11-19T02:35:48;0.40;;;0.30;;
6821;SDS011;3449;48.728;8.968;2023-11-19T02:38:15;0.40;;;0.40;;
6821;SDS011;3449;48.728;8.968;2023-11-19T02:40:42;0.47;;;0.40;;
6821;SDS011;3449;48.728;8.968;2023-11-19T02:43:08;0.40;;;0.30;;
6821;SDS011;3449;48.728;8.968;2023-11-19T02:45:37;0.50;;;0.40;;
6821;SDS011;3449;48.728;8.968;2023-11-19T02:48:04;0.70;;;0.40;;
6821;SDS011;3449;48.728;8.968;2023-11-19T02:50:32;0.50;;;0.40;;
6821;SDS011;3449;48.728;8.968;2023-11-19T02:52:59;0.40;;;0.40;;
6821;SDS011;3449;48.728;8.968;2023-11-19T02:55:26;1.33;;;0.50;;
6821;SDS011;3449;48.728;8.968;2023-11-19T02:57:56;0.50;;;0.30;;
6821;SDS011;3449;48.728;8.968;2023-11-19T03:00:24;0.50;;;0.50;;
6821;SDS011;3449;48.728;8.968;2023-11-19T03:03:00;0.70;;;0.40;;
6821;SDS011;3449;48.728;8.968;2023-11-19T03:05:35;0.70;;;0.57;;
6821;SDS011;3449;48.728;8.968;2023-11-19T03:08:02;0.40;;;0.30;;
6821;SDS011;3449;48.728;8.968;2023-11-19T03:10:29;0.40;;;0.30;;
6821;SDS011;3449;48.728;8.968;2023-11-19T03:12:56;0.40;;;0.30;;
6821;SDS011;3449;48.728;8.968;2023-11-19T03:15:22;0.50;;;0.37;;
6821;SDS011;3449;48.728;8.968;2023-11-19T03:17:49;0.43;;;0.33;;
6821;SDS011;3449;48.728;8.968;2023-11-19T03:20:18;0.40;;;0.30;;
6821;SDS011;3449;48.728;8.968;2023-11-19T03:22:45;0.50;;;0.30;;
6821;SDS011;3449;48.728;8.968;2023-11-19T03:25:12;0.50;;;0.50;;
6821;SDS011;3449;48.728;8.968;2023-11-19T03:27:39;0.60;;;0.30;;
6821;SDS011;3449;48.728;8.968;2023-11-19T03:30:07;0.50;;;0.30;;
6821;SDS011;3449;48.728;8.968;2023-11-19T03:32:35;0.40;;;0.30;;
6821;SDS011;3449;48.728;8.968;2023-11-19T03:35:04;2.63;;;0.50;;
6821;SDS011;3449;48.728;8.968;2023-11-19T03:37:35;0.73;;;0.40;;
6821;SDS011;3449;48.728;8.968;2023-11-19T03:40:02;0.40;;;0.40;;
6821;SDS011;3449;48.728;8.968;2023-11-19T03:42:30;0.40;;;0.30;;
6821;SDS011;3449;48.728;8.968;2023-11-19T03:44:57;0.50;;;0.30;;
6821;SDS011;3449;48.728;8.968;2023-11-19T03:47:24;0.50;;;0.40;;
6821;SDS011;3449;48.728;8.968;2023-11-19T03:49:51;0.40;;;0.30;;
6821;SDS011;3449;48.728;8.968;2023-11-19T03:52:18;0.40;;;0.30;;
6821;SDS011;3449;48.728;8.968;2023-11-19T03:54:46;5.03;;;0.50;;
6821;SDS011;3449;48.728;8.968;2023-11-19T03:57:14;0.53;;;0.37;;
6821;SDS011;3449;48.728;8.968;2023-11-19T03:59:41;0.53;;;0.40;;
6821;SDS011;3449;48.728;8.968;2023-11-19T04:02:09;0.50;;;0.30;;
6821;SDS011;3449;48.728;8.968;2023-11-19T04:04:36;0.90;;;0.50;;
6821;SDS011;3449;48.728;8.968;2023-11-19T04:07:04;0.50;;;0.30;;
6821;SDS011;3449;48.728;8.968;2023-11-19T04:09:31;0.40;;;0.27;;
6821;SDS011;3449;48.728;8.968;2023-11-19T04:12:00;0.40;;;0.30;;
6821;SDS011;3449;48.728;8.968;2023-11-19T04:14:27;0.40;;;0.30;;
6821;SDS011;3449;48.728;8.968;2023-11-19T04:16:54;0.50;;;0.30;;
6821;SDS011;3449;48.728;8.968;2023-11-19T04:19:21;0.40;;;0.30;;
6821;SDS011;3449;48.728;8.968;2023-11-19T04:21:48;0.50;;;0.30;;
6821;SDS011;3449;48.728;8.968;2023-11-19T04:24:14;0.40;;;0.40;;
6821;SDS011;3449;48.728;8.968;2023-11-19T04:26:41;0.40;;;0.30;;
6821;SDS011;3449;48.728;8.968;2023-11-19T04:29:11;0.40;;;0.20;;
6821;SDS011;3449;48.728;8.968;2023-11-19T04:31:39;0.40;;;0.30;;
6821;SDS011;3449;48.728;8.968;2023-11-19T04:34:06;0.40;;;0.30;;
6821;SDS011;3449;48.728;8.968;2023-11-19T04:36:33;0.40;;;0.30;;
6821;SDS011;3449;48.728;8.968;2023-11-19T04:39:02;0.40;;;0.30;;
6821;SDS011;3449;48.728;8.968;2023-11-19T04:41:33;0.67;;;0.40;;
6821;SDS011;3449;48.728;8.968;2023-11-19T04:44:00;1.67;;;0.40;;
6821;SDS011;3449;48.728;8.968;2023-11-19T04:46:29;0.40;;;0.30;;
6821;SDS011;3449;48.728;8.968;2023-11-19T04:48:55;0.53;;;0.30;;
6821;SDS011;3449;48.728;8.968;2023-11-19T04:51:22;0.40;;;0.30;;
6821;SDS011;3449;48.728;8.968;2023-11-19T04:53:49;0.40;;;0.30;;
6821;SDS011;3449;48.728;8.968;2023-11-19T04:56:16;0.40;;;0.30;;
6821;SDS011;3449;48.728;8.968;2023-11-19T04:58:44;0.50;;;0.40;;
6821;SDS011;3449;48.728;8.968;2023-11-19T05:01:13;0.40;;;0.30;;
6821;SDS011;3449;48.728;8.968;2023-11-19T05:03:43;0.50;;;0.50;;
6821;SDS011;3449;48.728;8.968;2023-11-19T05:06:10;0.40;;;0.30;;
6821;SDS011;3449;48.728;8.968;2023-11-19T05:08:37;0.40;;;0.33;;
6821;SDS011;3449;48.728;8.968;2023-11-19T05:11:04;1.00;;;0.40;;
6821;SDS011;3449;48.728;8.968;2023-11-19T05:13:32;0.60;;;0.50;;
6821;SDS011;3449;48.728;8.968;2023-11-19T05:15:58;0.47;;;0.37;;
6821;SDS011;3449;48.728;8.968;2023-11-19T05:18:25;0.40;;;0.37;;
6821;SDS011;3449;48.728;8.968;2023-11-19T05:20:53;0.40;;;0.40;;
6821;SDS011;3449;48.728;8.968;2023-11-19T05:23:20;0.40;;;0.30;;
6821;SDS011;3449;48.728;8.968;2023-11-19T05:25:47;0.40;;;0.37;;
6821;SDS011;3449;48.728;8.968;2023-11-19T05:28:14;0.40;;;0.40;;
6821;SDS011;3449;48.728;8.968;2023-11-19T05:30:41;0.40;;;0.30;;
6821;SDS011;3449;48.728;8.968;2023-11-19T05:33:08;0.63;;;0.50;;
6821;SDS011;3449;48.728;8.968;2023-11-19T05:35:35;0.40;;;0.30;;
6821;SDS011;3449;48.728;8.968;2023-11-19T05:38:04;0.40;;;0.40;;
6821;SDS011;3449;48.728;8.968;2023-11-19T05:40:31;0.40;;;0.37;;
6821;SDS011;3449;48.728;8.968;2023-11-19T05:42:58;0.50;;;0.40;;
6821;SDS011;3449;48.728;8.968;2023-11-19T05:45:24;0.40;;;0.40;;
6821;SDS011;3449;48.728;8.968;2023-11-19T05:47:51;0.40;;;0.30;;
6821;SDS011;3449;48.728;8.968;2023-11-19T05:50:18;0.40;;;0.33;;
6821;SDS011;3449;48.728;8.968;2023-11-19T05:52:45;0.40;;;0.30;;
6821;SDS011;3449;48.728;8.968;2023-11-19T05:55:14;0.40;;;0.30;;
6821;SDS011;3449;48.728;8.968;2023-11-19T05:57:40;0.40;;;0.33;;
6821;SDS011;3449;48.728;8.968;2023-11-19T06:00:08;0.40;;;0.40;;
6821;SDS011;3449;48.728;8.968;2023-11-19T06:02:38;0.50;;;0.33;;
6821;SDS011;3449;48.728;8.968;2023-11-19T06:05:05;0.70;;;0.40;;
6821;SDS011;3449;48.728;8.968;2023-11-19T06:07:32;0.40;;;0.30;;
6821;SDS011;3449;48.728;8.968;2023-11-19T06:10:00;1.63;;;0.40;;
6821;SDS011;3449;48.728;8.968;2023-11-19T06:12:29;1.07;;;0.40;;
6821;SDS011;3449;48.728;8.968;2023-11-19T06:14:58;0.40;;;0.30;;
6821;SDS011;3449;48.728;8.968;2023-11-19T06:17:26;0.50;;;0.30;;
6821;SDS011;3449;48.728;8.968;2023-11-19T06:19:53;0.50;;;0.40;;
6821;SDS011;3449;48.728;8.968;2023-11-19T06:22:20;0.50;;;0.40;;
6821;SDS011;3449;48.728;8.968;2023-11-19T06:24:47;1.43;;;0.47;;
6821;SDS011;3449;48.728;8.968;2023-11-19T06:27:14;1.23;;;0.60;;
6821;SDS011;3449;48.728;8.968;2023-11-19T06:29:42;0.57;;;0.50;;
6821;SDS011;3449;48.728;8.968;2023-11-19T06:32:09;0.67;;;0.50;;
6821;SDS011;3449;48.728;8.968;2023-11-19T06:34:35;0.50;;;0.50;;
6821;SDS011;3449;48.728;8.968;2023-11-19T06:37:03;0.50;;;0.50;;
6821;SDS011;3449;48.728;8.968;2023-11-19T06:39:29;0.50;;;0.40;;
6821;SDS011;3449;48.728;8.968;2023-11-19T06:41:56;0.40;;;0.33;;
6821;SDS011;3449;48.728;8.968;2023-11-19T06:44:23;0.50;;;0.50;;
6821;SDS011;3449;48.728;8.968;2023-11-19T06:46:52;0.50;;;0.50;;
6821;SDS011;3449;48.728;8.968;2023-11-19T06:49:19;1.07;;;0.43;;
6821;SDS011;3449;48.728;8.968;2023-11-19T06:51:45;0.70;;;0.50;;
6821;SDS011;3449;48.728;8.968;2023-11-19T06:54:12;0.50;;;0.40;;
6821;SDS011;3449;48.728;8.968;2023-11-19T06:56:39;0.60;;;0.47;;
6821;SDS011;3449;48.728;8.968;2023-11-19T06:59:06;0.40;;;0.40;;
6821;SDS011;3449;48.728;8.968;2023-11-19T07:01:36;0.70;;;0.43;;
6821;SDS011;3449;48.728;8.968;2023-11-19T07:04:06;0.50;;;0.40;;
6821;SDS011;3449;48.728;8.968;2023-11-19T07:06:34;0.67;;;0.50;;
6821;SDS011;3449;48.728;8.968;2023-11-19T07:09:02;1.70;;;0.40;;
6821;SDS011;3449;48.728;8.968;2023-11-19T07:11:34;0.40;;;0.40;;
6821;SDS011;3449;48.728;8.968;2023-11-19T07:14:02;0.50;;;0.40;;
6821;SDS011;3449;48.728;8.968;2023-11-19T07:16:29;0.50;;;0.40;;
6821;SDS011;3449;48.728;8.968;2023-11-19T07:18:56;0.93;;;0.50;;
6821;SDS011;3449;48.728;8.968;2023-11-19T07:21:25;2.10;;;0.60;;
6821;SDS011;3449;48.728;8.968;2023-11-19T07:23:53;1.23;;;0.93;;
6821;SDS011;3449;48.728;8.968;2023-11-19T07:26:20;0.73;;;0.60;;
6821;SDS011;3449;48.728;8.968;2023-11-19T07:28:47;0.63;;;0.63;;
6821;SDS011;3449;48.728;8.968;2023-11-19T07:31:14;1.10;;;1.00;;
6821;SDS011;3449;48.728;8.968;2023-11-19T07:33:41;0.70;;;0.70;;
6821;SDS011;3449;48.728;8.968;2023-11-19T07:36:09;0.80;;;0.70;;
6821;SDS011;3449;48.728;8.968;2023-11-19T07:38:37;1.53;;;1.03;;
6821;SDS011;3449;48.728;8.968;2023-11-19T07:41:04;2.20;;;0.93;;
6821;SDS011;3449;48.728;8.968;2023-11-19T07:43:31;1.10;;;1.00;;
6821;SDS011;3449;48.728;8.968;2023-11-19T07:45:59;0.77;;;0.50;;
6821;SDS011;3449;48.728;8.968;2023-11-19T07:48:26;0.80;;;0.80;;
6821;SDS011;3449;48.728;8.968;2023-11-19T07:50:53;0.80;;;0.80;;
6821;SDS011;3449;48.728;8.968;2023-11-19T07:53:20;0.57;;;0.57;;
6821;SDS011;3449;48.728;8.968;2023-11-19T07:55:48;0.70;;;0.70;;
6821;SDS011;3449;48.728;8.968;2023-11-19T07:58:15;0.77;;;0.77;;
6821;SDS011;3449;48.728;8.968;2023-11-19T08:00:43;0.93;;;0.80;;
6821;SDS011;3449;48.728;8.968;2023-11-19T08:03:09;1.27;;;1.17;;
6821;SDS011;3449;48.728;8.968;2023-11-19T08:05:36;0.70;;;0.70;;
6821;SDS011;3449;48.728;8.968;2023-11-19T08:08:04;4.57;;;1.77;;
6821;SDS011;3449;48.728;8.968;2023-11-19T08:10:32;3.10;;;1.43;;
6821;SDS011;3449;48.728;8.968;2023-11-19T08:13:00;2.33;;;1.60;;
6821;SDS011;3449;48.728;8.968;2023-11-19T08:15:27;2.10;;;1.70;;
6821;SDS011;3449;48.728;8.968;2023-11-19T08:17:54;1.50;;;1.40;;
6821;SDS011;3449;48.728;8.968;2023-11-19T08:20:21;1.90;;;1.20;;
6821;SDS011;3449;48.728;8.968;2023-11-19T08:22:48;2.00;;;1.43;;
6821;SDS011;3449;48.728;8.968;2023-11-19T08:25:15;1.20;;;1.07;;
6821;SDS011;3449;48.728;8.968;2023-11-19T08:27:42;0.90;;;0.90;;
6821;SDS011;3449;48.728;8.968;2023-11-19T08:30:11;1.20;;;0.97;;
6821;SDS011;3449;48.728;8.968;2023-11-19T08:32:38;3.43;;;1.10;;
6821;SDS011;3449;48.728;8.968;2023-11-19T08:35:06;0.80;;;0.67;;
6821;SDS011;3449;48.728;8.968;2023-11-19T08:37:33;0.87;;;0.87;;
6821;SDS011;3449;48.728;8.968;2023-11-19T08:40:01;0.60;;;0.60;;
6821;SDS011;3449;48.728;8.968;2023-11-19T08:42:29;1.37;;;0.57;;
6821;SDS011;3449;48.728;8.968;2023-11-19T08:44:56;0.50;;;0.50;;
6821;SDS011;3449;48.728;8.968;2023-11-19T08:47:25;0.70;;;0.70;;
6821;SDS011;3449;48.728;8.968;2023-11-19T08:49:52;0.80;;;0.70;;
6821;SDS011;3449;48.728;8.968;2023-11-19T08:52:20;0.70;;;0.70;;
6821;SDS011;3449;48.728;8.968;2023-11-19T08:54:47;1.63;;;0.60;;
6821;SDS011;3449;48.728;8.968;2023-11-19T08:57:14;0.83;;;0.83;;
6821;SDS011;3449;48.728;8.968;2023-11-19T08:59:41;0.73;;;0.67;;
6821;SDS011;3449;48.728;8.968;2023-11-19T09:02:08;0.80;;;0.80;;
6821;SDS011;3449;48.728;8.968;2023-11-19T09:04:36;2.40;;;1.40;;
6821;SDS011;3449;48.728;8.968;2023-11-19T09:07:03;1.27;;;1.00;;
6821;SDS011;3449;48.728;8.968;2023-11-19T09:09:31;1.20;;;1.07;;
6821;SDS011;3449;48.728;8.968;2023-11-19T09:12:02;1.00;;;0.90;;
6821;SDS011;3449;48.728;8.968;2023-11-19T09:14:29;1.20;;;1.07;;
6821;SDS011;3449;48.728;8.968;2023-11-19T09:16:56;1.90;;;1.60;;
6821;SDS011;3449;48.728;8.968;2023-11-19T09:19:23;1.37;;;1.07;;
6821;SDS011;3449;48.728;8.968;2023-11-19T09:21:52;1.97;;;1.60;;
6821;SDS011;3449;48.728;8.968;2023-11-19T09:24:19;1.67;;;1.47;;
6821;SDS011;3449;48.728;8.968;2023-11-19T09:26:46;1.17;;;1.07;;
6821;SDS011;3449;48.728;8.968;2023-11-19T09:29:13;4.83;;;2.60;;
6821;SDS011;3449;48.728;8.968;2023-11-19T09:31:40;2.20;;;0.73;;
6821;SDS011;3449;48.728;8.968;2023-11-19T09:34:07;1.03;;;0.90;;
6821;SDS011;3449;48.728;8.968;2023-11-19T09:36:34;2.50;;;1.53;;
6821;SDS011;3449;48.728;8.968;2023-11-19T09:39:02;1.10;;;1.00;;
6821;SDS011;3449;48.728;8.968;2023-11-19T09:41:30;0.97;;;0.50;;
6821;SDS011;3449;48.728;8.968;2023-11-19T09:43:59;1.47;;;0.50;;
6821;SDS011;3449;48.728;8.968;2023-11-19T09:46:26;1.10;;;0.73;;
6821;SDS011;3449;48.728;8.968;2023-11-19T09:48:54;0.90;;;0.90;;
6821;SDS011;3449;48.728;8.968;2023-11-19T09:51:24;0.60;;;0.53;;
6821;SDS011;3449;48.728;8.968;2023-11-19T09:53:51;1.00;;;0.60;;
6821;SDS011;3449;48.728;8.968;2023-11-19T09:56:19;1.13;;;0.60;;
6821;SDS011;3449;48.728;8.968;2023-11-19T09:58:47;1.33;;;0.73;;
6821;SDS011;3449;48.728;8.968;2023-11-19T10:01:14;4.43;;;0.70;;
6821;SDS011;3449;48.728;8.968;2023-11-19T10:03:41;5.03;;;0.80;;
6821;SDS011;3449;48.728;8.968;2023-11-19T10:06:09;0.70;;;0.60;;
6821;SDS011;3449;48.728;8.968;2023-11-19T10:08:37;1.00;;;0.70;;
6821;SDS011;3449;48.728;8.968;2023-11-19T10:11:05;0.90;;;0.47;;
6821;SDS011;3449;48.728;8.968;2023-11-19T10:13:34;1.90;;;0.60;;
6821;SDS011;3449;48.728;8.968;2023-11-19T10:16:03;2.50;;;0.70;;
6821;SDS011;3449;48.728;8.968;2023-11-19T10:18:33;0.50;;;0.40;;
6821;SDS011;3449;48.728;8.968;2023-11-19T10:21:03;0.50;;;0.50;;
6821;SDS011;3449;48.728;8.968;2023-11-19T10:23:41;1.03;;;0.50;;
6821;SDS011;3449;48.728;8.968;2023-11-19T10:26:15;0.50;;;0.40;;
6821;SDS011;3449;48.728;8.968;2023-11-19T10:28:43;0.60;;;0.60;;
6821;SDS011;3449;48.728;8.968;2023-11-19T10:31:12;1.90;;;0.50;;
6821;SDS011;3449;48.728;8.968;2023-11-19T10:33:39;1.53;;;0.57;;
6821;SDS011;3449;48.728;8.968;2023-11-19T10:36:06;0.60;;;0.40;;
6821;SDS011;3449;48.728;8.968;2023-11-19T10:38:33;1.27;;;0.50;;
6821;SDS011;3449;48.728;8.968;2023-11-19T10:41:00;0.50;;;0.40;;
6821;SDS011;3449;48.728;8.968;2023-11-19T10:43:27;2.70;;;0.70;;
6821;SDS011;3449;48.728;8.968;2023-11-19T10:45:56;6.50;;;0.80;;
6821;SDS011;3449;48.728;8.968;2023-11-19T10:48:35;0.50;;;0.50;;
6821;SDS011;3449;48.728;8.968;2023-11-19T10:51:03;0.60;;;0.40;;
6821;SDS011;3449;48.728;8.968;2023-11-19T10:53:32;0.83;;;0.40;;
6821;SDS011;3449;48.728;8.968;2023-11-19T10:56:02;0.50;;;0.40;;
6821;SDS011;3449;48.728;8.968;2023-11-19T10:58:33;2.40;;;0.50;;
6821;SDS011;3449;48.728;8.968;2023-11-19T11:01:07;1.60;;;0.57;;
6821;SDS011;3449;48.728;8.968;2023-11-19T11:03:39;1.03;;;0.77;;
6821;SDS011;3449;48.728;8.968;2023-11-19T11:06:06;4.00;;;0.97;;
6821;SDS011;3449;48.728;8.968;2023-11-19T11:08:34;1.90;;;0.73;;
6821;SDS011;3449;48.728;8.968;2023-11-19T11:11:04;0.60;;;0.40;;
6821;SDS011;3449;48.728;8.968;2023-11-19T11:13:32;1.30;;;0.57;;
6821;SDS011;3449;48.728;8.968;2023-11-19T11:15:59;0.83;;;0.43;;
6821;SDS011;3449;48.728;8.968;2023-11-19T11:18:28;1.33;;;0.37;;
6821;SDS011;3449;48.728;8.968;2023-11-19T11:20:55;1.23;;;0.60;;
6821;SDS011;3449;48.728;8.968;2023-11-19T11:23:36;0.57;;;0.40;;
6821;SDS011;3449;48.728;8.968;2023-11-19T11:26:29;0.63;;;0.40;;
6821;SDS011;3449;48.728;8.968;2023-11-19T11:29:09;1.03;;;0.77;;
6821;SDS011;3449;48.728;8.968;2023-11-19T11:31:43;0.50;;;0.43;;
6821;SDS011;3449;48.728;8.968;2023-11-19T11:34:31;1.47;;;0.50;;
6821;SDS011;3449;48.728;8.968;2023-11-19T11:37:15;11.03;;;2.40;;
6821;SDS011;3449;48.728;8.968;2023-11-19T11:39:49;0.60;;;0.60;;
6821;SDS011;3449;48.728;8.968;2023-11-19T11:42:32;0.73;;;0.60;;
6821;SDS011;3449;48.728;8.968;2023-11-19T11:45:00;1.63;;;0.50;;
6821;SDS011;3449;48.728;8.968;2023-11-19T11:50:34;0.93;;;0.47;;
6821;SDS011;3449;48.728;8.968;2023-11-19T11:53:18;1.50;;;0.60;;
6821;SDS011;3449;48.728;8.968;2023-11-19T11:55:57;0.40;;;0.40;;
6821;SDS011;3449;48.728;8.968;2023-11-19T11:58:26;0.50;;;0.50;;
6821;SDS011;3449;48.728;8.968;2023-11-19T12:00:58;0.70;;;0.47;;
6821;SDS011;3449;48.728;8.968;2023-11-19T12:03:27;0.40;;;0.40;;
6821;SDS011;3449;48.728;8.968;2023-11-19T12:05:57;1.23;;;0.47;;
6821;SDS011;3449;48.728;8.968;2023-11-19T12:08:24;0.80;;;0.70;;
6821;SDS011;3449;48.728;8.968;2023-11-19T12:10:53;1.27;;;0.63;;
6821;SDS011;3449;48.728;8.968;2023-11-19T12:13:22;0.87;;;0.60;;
6821;SDS011;3449;48.728;8.968;2023-11-19T12:16:08;1.20;;;0.70;;
6821;SDS011;3449;48.728;8.968;2023-11-19T12:18:36;1.73;;;0.40;;
6821;SDS011;3449;48.728;8.968;2023-11-19T12:21:08;0.97;;;0.50;;
6821;SDS011;3449;48.728;8.968;2023-11-19T12:23:44;1.57;;;0.47;;
6821;SDS011;3449;48.728;8.968;2023-11-19T12:26:31;3.80;;;0.70;;
6821;SDS011;3449;48.728;8.968;2023-11-19T12:29:02;0.77;;;0.40;;
6821;SDS011;3449;48.728;8.968;2023-11-19T12:31:31;1.27;;;0.57;;
6821;SDS011;3449;48.728;8.968;2023-11-19T12:34:00;2.60;;;0.40;;
6821;SDS011;3449;48.728;8.968;2023-11-19T12:36:33;2.63;;;0.60;;
6821;SDS011;3449;48.728;8.968;2023-11-19T12:39:00;0.70;;;0.50;;
6821;SDS011;3449;48.728;8.968;2023-11-19T12:41:28;0.80;;;0.70;;
6821;SDS011;3449;48.728;8.968;2023-11-19T12:44:08;1.63;;;0.50;;
6821;SDS011;3449;48.728;8.968;2023-11-19T12:46:36;1.53;;;0.43;;
6821;SDS011;3449;48.728;8.968;2023-11-19T12:49:02;0.60;;;0.50;;
6821;SDS011;3449;48.728;8.968;2023-11-19T12:51:32;0.70;;;0.40;;
6821;SDS011;3449;48.728;8.968;2023-11-19T12:53:59;1.77;;;0.60;;
6821;SDS011;3449;48.728;8.968;2023-11-19T12:56:26;3.20;;;1.00;;
6821;SDS011;3449;48.728;8.968;2023-11-19T12:58:52;1.10;;;0.60;;
6821;SDS011;3449;48.728;8.968;2023-11-19T13:01:21;0.90;;;0.43;;
6821;SDS011;3449;48.728;8.968;2023-11-19T13:03:48;1.10;;;0.70;;
6821;SDS011;3449;48.728;8.968;2023-11-19T13:06:16;0.70;;;0.50;;
6821;SDS011;3449;48.728;8.968;2023-11-19T13:08:48;3.50;;;0.70;;
6821;SDS011;3449;48.728;8.968;2023-11-19T13:11:29;2.23;;;0.50;;
6821;SDS011;3449;48.728;8.968;2023-11-19T13:13:57;0.80;;;0.60;;
6821;SDS011;3449;48.728;8.968;2023-11-19T13:16:24;1.63;;;0.67;;
6821;SDS011;3449;48.728;8.968;2023-11-19T13:18:52;1.63;;;0.80;;
6821;SDS011;3449;48.728;8.968;2023-11-19T13:21:19;1.83;;;0.70;;
6821;SDS011;3449;48.728;8.968;2023-11-19T13:23:45;0.67;;;0.43;;
6821;SDS011;3449;48.728;8.968;2023-11-19T13:26:14;0.60;;;0.60;;
6821;SDS011;3449;48.728;8.968;2023-11-19T13:28:41;2.17;;;0.87;;
6821;SDS011;3449;48.728;8.968;2023-11-19T13:31:07;0.93;;;0.30;;
6821;SDS011;3449;48.728;8.968;2023-11-19T13:33:35;0.47;;;0.40;;
6821;SDS011;3449;48.728;8.968;2023-11-19T13:36:02;0.50;;;0.47;;
6821;SDS011;3449;48.728;8.968;2023-11-19T13:38:32;0.67;;;0.53;;
6821;SDS011;3449;48.728;8.968;2023-11-19T13:41:00;0.60;;;0.53;;
6821;SDS011;3449;48.728;8.968;2023-11-19T13:43:28;0.60;;;0.50;;
6821;SDS011;3449;48.728;8.968;2023-11-19T13:45:54;0.50;;;0.50;;
6821;SDS011;3449;48.728;8.968;2023-11-19T13:48:21;0.63;;;0.43;;
6821;SDS011;3449;48.728;8.968;2023-11-19T13:50:48;0.77;;;0.77;;
6821;SDS011;3449;48.728;8.968;2023-11-19T13:53:15;2.00;;;0.70;;
6821;SDS011;3449;48.728;8.968;2023-11-19T13:55:42;0.47;;;0.43;;
6821;SDS011;3449;48.728;8.968;2023-11-19T13:58:11;5.20;;;2.63;;
6821;SDS011;3449;48.728;8.968;2023-11-19T14:00:38;1.73;;;0.70;;
6821;SDS011;3449;48.728;8.968;2023-11-19T14:03:07;0.50;;;0.47;;
6821;SDS011;3449;48.728;8.968;2023-11-19T14:05:34;1.03;;;0.43;;
6821;SDS011;3449;48.728;8.968;2023-11-19T14:08:01;2.10;;;0.63;;
6821;SDS011;3449;48.728;8.968;2023-11-19T14:10:28;1.20;;;0.60;;
6821;SDS011;3449;48.728;8.968;2023-11-19T14:12:55;2.10;;;0.50;;
6821;SDS011;3449;48.728;8.968;2023-11-19T14:15:24;1.10;;;0.63;;
6821;SDS011;3449;48.728;8.968;2023-11-19T14:17:51;0.50;;;0.40;;
6821;SDS011;3449;48.728;8.968;2023-11-19T14:20:18;0.93;;;0.57;;
6821;SDS011;3449;48.728;8.968;2023-11-19T14:22:45;0.70;;;0.40;;
6821;SDS011;3449;48.728;8.968;2023-11-19T14:25:14;0.57;;;0.57;;
6821;SDS011;3449;48.728;8.968;2023-11-19T14:27:41;0.60;;;0.60;;
6821;SDS011;3449;48.728;8.968;2023-11-19T14:30:11;1.53;;;0.60;;
6821;SDS011;3449;48.728;8.968;2023-11-19T14:32:41;0.80;;;0.80;;
6821;SDS011;3449;48.728;8.968;2023-11-19T14:35:10;1.10;;;0.90;;
6821;SDS011;3449;48.728;8.968;2023-11-19T14:37:37;2.73;;;0.83;;
6821;SDS011;3449;48.728;8.968;2023-11-19T14:40:05;0.70;;;0.50;;
6821;SDS011;3449;48.728;8.968;2023-11-19T14:42:34;1.73;;;0.50;;
6821;SDS011;3449;48.728;8.968;2023-11-19T14:45:02;2.80;;;0.73;;
6821;SDS011;3449;48.728;8.968;2023-11-19T14:47:29;2.30;;;0.87;;
6821;SDS011;3449;48.728;8.968;2023-11-19T14:49:58;0.60;;;0.50;;
6821;SDS011;3449;48.728;8.968;2023-11-19T14:52:24;0.63;;;0.40;;
6821;SDS011;3449;48.728;8.968;2023-11-19T14:54:51;1.07;;;0.60;;
6821;SDS011;3449;48.728;8.968;2023-11-19T14:57:21;1.77;;;0.63;;
6821;SDS011;3449;48.728;8.968;2023-11-19T14:59:48;0.97;;;0.80;;
6821;SDS011;3449;48.728;8.968;2023-11-19T15:02:15;0.60;;;0.57;;
6821;SDS011;3449;48.728;8.968;2023-11-19T15:04:42;1.37;;;0.43;;
6821;SDS011;3449;48.728;8.968;2023-11-19T15:07:10;1.43;;;0.50;;
6821;SDS011;3449;48.728;8.968;2023-11-19T15:09:37;0.60;;;0.50;;
6821;SDS011;3449;48.728;8.968;2023-11-19T15:12:04;0.80;;;0.70;;
6821;SDS011;3449;48.728;8.968;2023-11-19T15:14:32;3.50;;;2.47;;
6821;SDS011;3449;48.728;8.968;2023-11-19T15:16:58;0.80;;;0.80;;
6821;SDS011;3449;48.728;8.968;2023-11-19T15:19:26;0.70;;;0.67;;
6821;SDS011;3449;48.728;8.968;2023-11-19T15:21:53;3.47;;;0.70;;
6821;SDS011;3449;48.728;8.968;2023-11-19T15:24:22;0.60;;;0.60;;
6821;SDS011;3449;48.728;8.968;2023-11-19T15:26:50;1.00;;;0.87;;
6821;SDS011;3449;48.728;8.968;2023-11-19T15:29:17;0.57;;;0.57;;